createdAt,value
2018-03-01T00:00:15.521Z,0.00
2018-03-01T00:01:15.494Z,0.00
2018-03-01T00:02:15.455Z,0.00
2018-03-01T00:03:15.424Z,0.00
2018-03-01T00:04:15.394Z,0.00
2018-03-01T00:05:15.442Z,0.00
2018-03-01T00:06:15.340Z,0.00
2018-03-01T00:07:15.310Z,0.00
2018-03-01T00:08:15.281Z,0.00
2018-03-01T00:09:15.254Z,0.00
2018-03-01T00:10:15.226Z,0.00
2018-03-01T00:11:15.204Z,0.00
2018-03-01T00:12:15.936Z,0.00
2018-03-01T00:13:15.133Z,0.00
2018-03-01T00:14:15.091Z,0.00
2018-03-01T00:15:15.063Z,0.00
2018-03-01T00:16:15.034Z,0.00
2018-03-01T00:17:15.006Z,0.00
2018-03-01T00:18:14.993Z,0.00
2018-03-01T00:19:15.077Z,0.00
2018-03-01T00:20:14.910Z,0.00
2018-03-01T00:21:14.881Z,0.00
2018-03-01T00:22:14.855Z,0.00
2018-03-01T00:23:14.833Z,0.00
2018-03-01T00:24:14.804Z,0.00
2018-03-01T00:25:14.779Z,0.00
2018-03-01T00:26:14.737Z,0.00
2018-03-01T00:27:14.702Z,0.00
2018-03-01T00:28:14.670Z,0.00
2018-03-01T00:29:14.639Z,0.00
2018-03-01T00:30:14.610Z,0.00
2018-03-01T00:31:14.580Z,0.00
2018-03-01T00:32:14.555Z,0.00
2018-03-01T00:33:14.519Z,0.00
2018-03-01T00:34:14.487Z,0.00
2018-03-01T00:35:14.462Z,0.00
2018-03-01T00:36:14.431Z,0.00
2018-03-01T00:37:14.403Z,0.00
2018-03-01T00:38:14.392Z,0.00
2018-03-01T00:39:14.340Z,0.00
2018-03-01T00:40:14.311Z,0.00
2018-03-01T00:41:14.278Z,0.00
2018-03-01T00:42:14.249Z,0.00
2018-03-01T00:43:14.217Z,0.00
2018-03-01T00:44:14.195Z,0.00
2018-03-01T00:45:14.157Z,0.00
2018-03-01T00:46:14.128Z,0.00
2018-03-01T00:47:14.098Z,0.00
2018-03-01T00:48:14.066Z,0.00
2018-03-01T00:49:14.038Z,0.00
2018-03-01T00:50:14.005Z,0.00
2018-03-01T00:51:13.975Z,0.00
2018-03-01T00:52:13.946Z,0.00
2018-03-01T00:53:13.921Z,0.00
2018-03-01T00:54:13.884Z,0.00
2018-03-01T00:55:13.854Z,0.00
2018-03-01T00:56:13.827Z,0.00
2018-03-01T00:57:13.795Z,0.00
2018-03-01T00:58:13.762Z,0.00
2018-03-01T00:59:13.747Z,0.00
2018-03-01T01:00:13.703Z,0.00
2018-03-01T01:01:13.674Z,0.00
2018-03-01T01:02:13.641Z,0.00
2018-03-01T01:03:13.612Z,0.00
2018-03-01T01:04:13.583Z,0.00
2018-03-01T01:05:13.553Z,0.00
2018-03-01T01:06:13.526Z,0.00
2018-03-01T01:07:13.492Z,0.00
2018-03-01T01:08:13.462Z,0.00
2018-03-01T01:09:13.431Z,0.00
2018-03-01T01:10:13.403Z,0.00
2018-03-01T01:11:13.380Z,0.00
2018-03-01T01:12:13.342Z,0.00
2018-03-01T01:13:13.313Z,0.00
2018-03-01T01:14:13.283Z,0.00
2018-03-01T01:15:13.250Z,0.00
2018-03-01T01:16:13.220Z,0.00
2018-03-01T01:17:13.196Z,0.00
2018-03-01T01:18:13.169Z,0.00
2018-03-01T01:19:13.129Z,0.00
2018-03-01T01:20:13.101Z,0.00
2018-03-01T01:21:13.075Z,0.00
2018-03-01T01:22:13.048Z,0.00
2018-03-01T01:23:13.017Z,0.00
2018-03-01T01:24:12.981Z,0.00
2018-03-01T01:25:12.954Z,0.00
2018-03-01T01:26:12.922Z,0.00
2018-03-01T01:27:12.893Z,0.00
2018-03-01T01:28:12.857Z,0.00
2018-03-01T01:29:12.827Z,0.00
2018-03-01T01:30:12.797Z,0.00
2018-03-01T01:31:12.820Z,0.00
2018-03-01T01:32:12.736Z,0.00
2018-03-01T01:33:12.719Z,0.00
2018-03-01T01:34:12.676Z,0.00
2018-03-01T01:35:12.647Z,0.00
2018-03-01T01:36:12.618Z,0.00
2018-03-01T01:37:12.586Z,0.00
2018-03-01T01:38:12.555Z,0.00
2018-03-01T01:39:12.530Z,0.00
2018-03-01T01:40:12.520Z,0.00
2018-03-01T01:41:12.470Z,0.00
2018-03-01T01:42:12.444Z,0.00
2018-03-01T01:43:12.409Z,0.00
2018-03-01T01:44:12.375Z,0.00
2018-03-01T01:45:12.346Z,0.00
2018-03-01T01:46:12.318Z,0.00
2018-03-01T01:47:12.285Z,0.00
2018-03-01T01:48:12.256Z,0.00
2018-03-01T01:49:12.225Z,0.00
2018-03-01T01:50:12.198Z,0.00
2018-03-01T01:51:12.173Z,0.00
2018-03-01T01:52:12.141Z,0.00
2018-03-01T01:53:12.112Z,0.00
2018-03-01T01:54:12.072Z,0.00
2018-03-01T01:55:12.048Z,0.00
2018-03-01T01:56:12.018Z,0.00
2018-03-01T01:57:11.989Z,0.00
2018-03-01T01:58:11.961Z,0.00
2018-03-01T01:59:11.929Z,0.00
2018-03-01T02:00:11.895Z,0.00
2018-03-01T02:01:11.867Z,0.00
2018-03-01T02:02:11.839Z,0.00
2018-03-01T02:03:11.813Z,0.00
2018-03-01T02:04:11.777Z,0.00
2018-03-01T02:05:11.746Z,0.00
2018-03-01T02:06:11.715Z,0.00
2018-03-01T02:07:11.689Z,0.00
2018-03-01T02:08:11.655Z,0.00
2018-03-01T02:09:11.629Z,0.00
2018-03-01T02:10:11.599Z,0.00
2018-03-01T02:11:11.571Z,0.00
2018-03-01T02:12:11.539Z,0.00
2018-03-01T02:13:11.521Z,0.00
2018-03-01T02:14:11.473Z,0.00
2018-03-01T02:15:11.456Z,0.00
2018-03-01T02:16:11.427Z,0.00
2018-03-01T02:17:11.407Z,0.00
2018-03-01T02:18:11.349Z,0.00
2018-03-01T02:19:11.319Z,0.00
2018-03-01T02:20:11.290Z,0.00
2018-03-01T02:21:11.280Z,0.00
2018-03-01T02:22:11.230Z,0.00
2018-03-01T02:23:11.220Z,0.00
2018-03-01T02:24:11.170Z,0.00
2018-03-01T02:25:11.142Z,0.00
2018-03-01T02:26:11.106Z,0.00
2018-03-01T02:27:11.080Z,0.00
2018-03-01T02:28:11.047Z,0.00
2018-03-01T02:29:11.021Z,0.00
2018-03-01T02:30:10.987Z,0.00
2018-03-01T02:31:10.961Z,0.00
2018-03-01T02:32:10.926Z,0.00
2018-03-01T02:33:10.901Z,0.00
2018-03-01T02:34:10.875Z,0.00
2018-03-01T02:35:10.837Z,0.00
2018-03-01T02:36:10.809Z,0.00
2018-03-01T02:37:10.776Z,0.00
2018-03-01T02:38:10.765Z,0.00
2018-03-01T02:39:10.720Z,0.00
2018-03-01T02:40:10.687Z,0.00
2018-03-01T02:41:10.657Z,0.00
2018-03-01T02:42:10.637Z,0.00
2018-03-01T02:43:10.605Z,0.00
2018-03-01T02:44:10.565Z,0.00
2018-03-01T02:45:10.537Z,0.00
2018-03-01T02:46:10.505Z,0.00
2018-03-01T02:47:10.476Z,0.00
2018-03-01T02:48:10.446Z,0.00
2018-03-01T02:49:10.419Z,0.00
2018-03-01T02:50:10.385Z,0.00
2018-03-01T02:51:10.357Z,0.00
2018-03-01T02:52:10.326Z,0.00
2018-03-01T02:53:10.302Z,0.00
2018-03-01T02:54:10.265Z,0.00
2018-03-01T02:55:10.234Z,0.00
2018-03-01T02:56:10.202Z,0.00
2018-03-01T02:57:10.176Z,0.00
2018-03-01T02:58:10.163Z,0.00
2018-03-01T02:59:10.119Z,0.00
2018-03-01T03:00:10.085Z,0.00
2018-03-01T03:01:10.053Z,0.00
2018-03-01T03:02:10.023Z,0.00
2018-03-01T03:03:09.997Z,0.00
2018-03-01T03:04:09.965Z,0.00
2018-03-01T03:05:09.933Z,0.00
2018-03-01T03:06:09.904Z,0.00
2018-03-01T03:07:09.870Z,0.00
2018-03-01T03:08:09.839Z,0.00
2018-03-01T03:09:09.827Z,0.00
2018-03-01T03:10:09.789Z,0.00
2018-03-01T03:11:09.749Z,0.00
2018-03-01T03:12:09.721Z,0.00
2018-03-01T03:13:09.692Z,0.00
2018-03-01T03:14:09.662Z,0.00
2018-03-01T03:15:09.639Z,0.00
2018-03-01T03:16:09.599Z,0.00
2018-03-01T03:17:09.567Z,0.00
2018-03-01T03:18:09.540Z,0.00
2018-03-01T03:19:09.508Z,0.00
2018-03-01T03:20:09.479Z,0.00
2018-03-01T03:21:09.450Z,0.00
2018-03-01T03:22:09.430Z,0.00
2018-03-01T03:23:09.390Z,0.00
2018-03-01T03:24:09.358Z,0.00
2018-03-01T03:25:09.330Z,0.00
2018-03-01T03:26:09.297Z,0.00
2018-03-01T03:27:09.267Z,0.00
2018-03-01T03:28:09.235Z,0.00
2018-03-01T03:29:09.251Z,0.00
2018-03-01T03:30:09.223Z,0.00
2018-03-01T03:31:09.146Z,0.00
2018-03-01T03:32:09.119Z,0.00
2018-03-01T03:33:09.085Z,0.00
2018-03-01T03:34:09.060Z,0.00
2018-03-01T03:35:09.024Z,0.00
2018-03-01T03:36:09.004Z,0.00
2018-03-01T03:37:08.965Z,0.00
2018-03-01T03:38:08.937Z,0.00
2018-03-01T03:39:08.904Z,0.00
2018-03-01T03:40:08.880Z,0.00
2018-03-01T03:41:08.845Z,0.00
2018-03-01T03:42:08.812Z,0.00
2018-03-01T03:43:08.781Z,0.00
2018-03-01T03:44:08.758Z,0.00
2018-03-01T03:45:08.724Z,0.00
2018-03-01T03:46:08.691Z,0.00
2018-03-01T03:47:08.663Z,0.00
2018-03-01T03:48:08.647Z,0.00
2018-03-01T03:49:08.611Z,0.00
2018-03-01T03:50:08.575Z,0.00
2018-03-01T03:51:08.541Z,0.00
2018-03-01T03:52:08.509Z,0.00
2018-03-01T03:53:08.482Z,0.00
2018-03-01T03:54:08.448Z,0.00
2018-03-01T03:55:08.418Z,0.00
2018-03-01T03:56:08.389Z,0.00
2018-03-01T03:57:08.371Z,0.00
2018-03-01T03:58:08.356Z,0.00
2018-03-01T03:59:08.308Z,0.00
2018-03-01T04:00:08.277Z,0.00
2018-03-01T04:01:08.243Z,0.00
2018-03-01T04:02:08.220Z,0.00
2018-03-01T04:03:08.181Z,0.00
2018-03-01T04:04:08.152Z,0.00
2018-03-01T04:05:08.125Z,0.00
2018-03-01T04:06:08.086Z,0.00
2018-03-01T04:07:08.058Z,0.00
2018-03-01T04:08:08.029Z,0.00
2018-03-01T04:09:07.996Z,0.00
2018-03-01T04:10:07.964Z,0.00
2018-03-01T04:11:07.940Z,0.00
2018-03-01T04:12:07.907Z,0.00
2018-03-01T04:13:07.876Z,0.00
2018-03-01T04:14:07.844Z,0.00
2018-03-01T04:15:07.827Z,0.00
2018-03-01T04:16:07.800Z,0.00
2018-03-01T04:17:07.758Z,0.00
2018-03-01T04:18:07.727Z,0.00
2018-03-01T04:19:07.712Z,0.00
2018-03-01T04:20:07.663Z,0.00
2018-03-01T04:21:07.634Z,0.00
2018-03-01T04:22:07.605Z,0.00
2018-03-01T04:23:07.579Z,0.00
2018-03-01T04:24:07.556Z,0.00
2018-03-01T04:25:07.524Z,0.00
2018-03-01T04:26:07.482Z,0.00
2018-03-01T04:27:07.456Z,0.00
2018-03-01T04:28:07.421Z,0.00
2018-03-01T04:29:07.392Z,0.00
2018-03-01T04:30:07.415Z,0.00
2018-03-01T04:31:07.330Z,0.00
2018-03-01T04:32:07.314Z,0.00
2018-03-01T04:33:07.273Z,0.00
2018-03-01T04:34:07.247Z,0.00
2018-03-01T04:35:07.279Z,0.00
2018-03-01T04:36:07.180Z,0.00
2018-03-01T04:37:07.161Z,0.00
2018-03-01T04:38:07.122Z,0.00
2018-03-01T04:39:07.095Z,0.00
2018-03-01T04:40:07.060Z,0.00
2018-03-01T04:41:07.032Z,0.00
2018-03-01T04:42:07.012Z,0.00
2018-03-01T04:43:06.974Z,0.00
2018-03-01T04:44:06.940Z,0.00
2018-03-01T04:45:06.908Z,0.00
2018-03-01T04:46:06.877Z,0.00
2018-03-01T04:47:06.863Z,0.00
2018-03-01T04:48:06.817Z,0.00
2018-03-01T04:49:06.839Z,0.00
2018-03-01T04:50:06.775Z,0.00
2018-03-01T04:51:06.755Z,0.00
2018-03-01T04:52:06.710Z,0.00
2018-03-01T04:53:06.682Z,0.00
2018-03-01T04:54:06.637Z,0.00
2018-03-01T04:55:06.619Z,0.00
2018-03-01T04:56:06.584Z,0.00
2018-03-01T04:57:06.556Z,0.00
2018-03-01T04:58:06.527Z,0.00
2018-03-01T04:59:06.497Z,0.00
2018-03-01T05:00:06.465Z,0.00
2018-03-01T05:01:06.427Z,0.00
2018-03-01T05:02:06.406Z,0.00
2018-03-01T05:03:06.396Z,0.00
2018-03-01T05:04:06.392Z,0.00
2018-03-01T05:05:06.331Z,0.00
2018-03-01T05:06:06.316Z,0.00
2018-03-01T05:07:06.252Z,0.00
2018-03-01T05:08:06.218Z,0.00
2018-03-01T05:09:06.195Z,0.00
2018-03-01T05:10:06.163Z,0.00
2018-03-01T05:11:06.136Z,0.00
2018-03-01T05:12:06.106Z,0.00
2018-03-01T05:13:06.076Z,0.00
2018-03-01T05:14:06.049Z,0.00
2018-03-01T05:15:06.018Z,0.00
2018-03-01T05:16:05.981Z,0.00
2018-03-01T05:17:05.948Z,0.00
2018-03-01T05:18:05.928Z,0.00
2018-03-01T05:19:05.887Z,0.00
2018-03-01T05:20:05.857Z,0.00
2018-03-01T05:21:05.833Z,0.00
2018-03-01T05:22:05.797Z,0.00
2018-03-01T05:23:05.787Z,0.00
2018-03-01T05:24:05.777Z,0.00
2018-03-01T05:25:05.723Z,0.00
2018-03-01T05:26:05.724Z,0.00
2018-03-01T05:27:05.657Z,0.00
2018-03-01T05:28:05.637Z,0.00
2018-03-01T05:29:05.589Z,0.00
2018-03-01T05:30:05.565Z,0.00
2018-03-01T05:31:05.523Z,0.00
2018-03-01T05:32:05.505Z,0.00
2018-03-01T05:33:05.506Z,0.00
2018-03-01T05:34:05.434Z,0.00
2018-03-01T05:35:05.437Z,0.00
2018-03-01T05:36:05.377Z,0.00
2018-03-01T05:37:05.344Z,0.00
2018-03-01T05:38:05.340Z,0.00
2018-03-01T05:39:05.287Z,0.00
2018-03-01T05:40:05.272Z,0.00
2018-03-01T05:41:05.239Z,0.00
2018-03-01T05:42:05.199Z,0.00
2018-03-01T05:43:05.187Z,0.00
2018-03-01T05:44:05.161Z,0.00
2018-03-01T05:45:05.107Z,4.00
2018-03-01T05:46:05.084Z,4.00
2018-03-01T05:47:05.096Z,0.00
2018-03-01T05:48:05.047Z,0.00
2018-03-01T05:49:05.034Z,4.00
2018-03-01T05:50:04.974Z,0.00
2018-03-01T05:51:04.950Z,4.00
2018-03-01T05:52:04.904Z,4.00
2018-03-01T05:53:04.960Z,4.00
2018-03-01T05:54:04.830Z,4.00
2018-03-01T05:55:04.829Z,4.00
2018-03-01T05:56:04.797Z,8.00
2018-03-01T05:57:04.753Z,8.00
2018-03-01T05:58:04.736Z,12.00
2018-03-01T05:59:04.712Z,16.00
2018-03-01T06:00:04.673Z,16.00
2018-03-01T06:01:04.637Z,20.00
2018-03-01T06:02:04.623Z,20.00
2018-03-01T06:03:04.579Z,20.00
2018-03-01T06:04:04.577Z,24.00
2018-03-01T06:05:04.514Z,28.00
2018-03-01T06:06:04.524Z,32.00
2018-03-01T06:07:04.456Z,40.00
2018-03-01T06:08:04.456Z,40.00
2018-03-01T06:09:04.412Z,48.00
2018-03-01T06:10:04.349Z,56.00
2018-03-01T06:11:04.367Z,60.00
2018-03-01T06:12:04.293Z,68.00
2018-03-01T06:13:04.293Z,76.00
2018-03-01T06:14:04.274Z,84.00
2018-03-01T06:15:04.212Z,92.00
2018-03-01T06:16:04.191Z,108.00
2018-03-01T06:17:04.149Z,120.00
2018-03-01T06:18:04.129Z,128.00
2018-03-01T06:19:04.093Z,144.00
2018-03-01T06:20:04.064Z,148.00
2018-03-01T06:21:04.039Z,164.00
2018-03-01T06:22:04.020Z,172.00
2018-03-01T06:23:03.969Z,180.00
2018-03-01T06:24:03.982Z,196.00
2018-03-01T06:25:03.909Z,212.00
2018-03-01T06:26:03.900Z,220.00
2018-03-01T06:27:03.895Z,240.00
2018-03-01T06:28:03.834Z,264.00
2018-03-01T06:29:03.788Z,284.00
2018-03-01T06:30:03.764Z,308.00
2018-03-01T06:31:03.739Z,332.00
2018-03-01T06:32:03.712Z,364.00
2018-03-01T06:33:03.678Z,400.00
2018-03-01T06:34:03.654Z,440.00
2018-03-01T06:35:03.636Z,484.00
2018-03-01T06:36:03.581Z,520.00
2018-03-01T06:37:03.603Z,564.00
2018-03-01T06:38:03.522Z,584.00
2018-03-01T06:39:03.486Z,620.00
2018-03-01T06:40:03.467Z,656.00
2018-03-01T06:41:03.481Z,704.00
2018-03-01T06:42:03.398Z,748.00
2018-03-01T06:43:03.372Z,792.00
2018-03-01T06:44:03.352Z,828.00
2018-03-01T06:45:03.364Z,880.00
2018-03-01T06:46:03.320Z,904.00
2018-03-01T06:47:03.282Z,972.00
2018-03-01T06:48:03.230Z,1016.00
2018-03-01T06:49:03.253Z,1060.00
2018-03-01T06:50:03.170Z,1084.00
2018-03-01T06:51:03.141Z,1088.00
2018-03-01T06:52:03.109Z,1096.00
2018-03-01T06:53:03.090Z,1092.00
2018-03-01T06:54:03.093Z,1112.00
2018-03-01T06:55:03.012Z,1152.00
2018-03-01T06:56:03.002Z,1196.00
2018-03-01T06:57:02.966Z,1232.00
2018-03-01T06:58:02.964Z,1236.00
2018-03-01T06:59:02.968Z,1232.00
2018-03-01T07:00:02.862Z,1252.00
2018-03-01T07:01:02.840Z,1296.00
2018-03-01T07:02:02.816Z,1356.00
2018-03-01T07:03:02.769Z,1424.00
2018-03-01T07:04:02.769Z,1492.00
2018-03-01T07:05:02.711Z,1556.00
2018-03-01T07:06:02.688Z,1604.00
2018-03-01T07:07:02.661Z,1660.00
2018-03-01T07:08:02.657Z,1700.00
2018-03-01T07:09:02.609Z,1692.00
2018-03-01T07:10:02.598Z,1732.00
2018-03-01T07:11:02.560Z,1740.00
2018-03-01T07:12:02.514Z,1764.00
2018-03-01T07:13:02.500Z,1756.00
2018-03-01T07:14:02.457Z,1764.00
2018-03-01T07:15:02.443Z,1732.00
2018-03-01T07:16:02.402Z,1652.00
2018-03-01T07:17:02.385Z,1664.00
2018-03-01T07:18:02.328Z,1628.00
2018-03-01T07:19:02.309Z,1616.00
2018-03-01T07:20:02.275Z,1588.00
2018-03-01T07:21:02.258Z,1600.00
2018-03-01T07:22:02.229Z,1628.00
2018-03-01T07:23:02.181Z,1596.00
2018-03-01T07:24:02.164Z,1576.00
2018-03-01T07:25:02.123Z,1540.00
2018-03-01T07:26:02.100Z,1524.00
2018-03-01T07:27:02.067Z,1516.00
2018-03-01T07:28:02.029Z,1548.00
2018-03-01T07:29:02.000Z,1568.00
2018-03-01T07:30:01.999Z,1584.00
2018-03-01T07:31:01.944Z,1556.00
2018-03-01T07:32:01.926Z,1580.00
2018-03-01T07:33:01.970Z,1460.00
2018-03-01T07:34:01.869Z,1528.00
2018-03-01T07:35:01.828Z,1564.00
2018-03-01T07:36:01.835Z,1584.00
2018-03-01T07:37:01.801Z,1640.00
2018-03-01T07:38:01.758Z,1688.00
2018-03-01T07:39:01.726Z,1776.00
2018-03-01T07:40:01.681Z,1964.00
2018-03-01T07:41:01.657Z,1984.00
2018-03-01T07:42:01.641Z,2000.00
2018-03-01T07:43:01.604Z,2124.00
2018-03-01T07:44:01.570Z,2208.00
2018-03-01T07:45:01.532Z,2208.00
2018-03-01T07:46:01.511Z,2208.00
2018-03-01T07:47:01.496Z,2356.00
2018-03-01T07:48:01.470Z,2588.00
2018-03-01T07:49:01.413Z,2600.00
2018-03-01T07:50:01.399Z,2672.00
2018-03-01T07:51:01.368Z,2692.00
2018-03-01T07:52:01.337Z,2636.00
2018-03-01T07:53:01.296Z,2576.00
2018-03-01T07:54:01.281Z,2524.00
2018-03-01T07:55:01.236Z,2544.00
2018-03-01T07:56:01.242Z,2508.00
2018-03-01T07:57:01.195Z,2552.00
2018-03-01T07:58:01.156Z,2528.00
2018-03-01T07:59:01.136Z,2492.00
2018-03-01T08:00:01.130Z,2508.00
2018-03-01T08:01:01.065Z,2496.00
2018-03-01T08:02:01.060Z,2524.00
2018-03-01T08:03:00.992Z,2532.00
2018-03-01T08:04:00.989Z,2528.00
2018-03-01T08:05:00.934Z,2524.00
2018-03-01T08:06:00.957Z,2544.00
2018-03-01T08:07:00.887Z,2536.00
2018-03-01T08:08:00.863Z,2548.00
2018-03-01T08:10:28.557Z,2576.00
